createdAt,value
2023-03-21T00:00:40.304Z,101585.19
2023-03-21T00:03:06.887Z,101582.50
2023-03-21T00:05:33.340Z,101574.63
2023-03-21T00:08:01.167Z,101576.38
2023-03-21T00:10:39.562Z,101574.63
2023-03-21T00:13:13.064Z,101577.22
2023-03-21T00:16:03.454Z,101574.63
2023-03-21T00:18:30.764Z,101574.63
2023-03-21T00:21:35.551Z,101570.25
2023-03-21T00:23:49.972Z,101575.50
2023-03-21T00:26:17.175Z,101579.88
2023-03-21T00:28:43.842Z,101570.19
2023-03-21T00:31:10.898Z,101575.50
2023-03-21T00:33:39.467Z,101567.63
2023-03-21T00:36:07.220Z,101562.38
2023-03-21T00:38:34.456Z,101565.00
2023-03-21T00:41:18.911Z,101572.88
2023-03-21T00:43:47.751Z,101562.38
2023-03-21T00:46:15.833Z,101558.91
2023-03-21T00:48:43.635Z,101557.16
2023-03-21T00:51:21.726Z,101558.03
2023-03-21T00:53:48.115Z,101550.16
2023-03-21T00:56:14.573Z,101549.25
2023-03-21T00:58:40.923Z,101551.03
2023-03-21T01:01:09.376Z,101533.47
2023-03-21T01:03:42.698Z,101540.47
2023-03-21T01:06:13.600Z,101533.47
2023-03-21T01:08:57.808Z,101524.66
2023-03-21T01:11:28.308Z,101524.66
2023-03-21T01:14:07.154Z,101515.00
2023-03-21T01:16:39.737Z,101520.25
2023-03-21T01:19:14.881Z,101517.66
2023-03-21T01:21:44.912Z,101515.88
2023-03-21T01:24:11.482Z,101515.00
2023-03-21T01:26:38.009Z,101513.25
2023-03-21T01:29:05.463Z,101506.22
2023-03-21T01:31:33.448Z,101507.06
2023-03-21T01:33:59.826Z,101506.22
2023-03-21T01:36:26.749Z,101508.84
2023-03-21T01:38:53.807Z,101497.47
2023-03-21T01:41:41.997Z,101496.56
2023-03-21T01:44:15.461Z,101499.19
2023-03-21T01:46:54.542Z,101499.19
2023-03-21T01:49:34.366Z,101493.06
2023-03-21T01:52:12.776Z,101483.41
2023-03-21T01:54:45.287Z,101486.06
2023-03-21T01:57:22.094Z,101486.06
2023-03-21T01:59:54.342Z,101473.78
2023-03-21T02:02:25.760Z,101467.66
2023-03-21T02:04:56.046Z,101467.56
2023-03-21T02:07:29.253Z,101468.44
2023-03-21T02:09:57.883Z,101471.94
2023-03-21T02:12:25.951Z,101464.84
2023-03-21T02:14:54.213Z,101465.75
2023-03-21T02:17:35.601Z,101459.63
2023-03-21T02:20:11.745Z,101449.06
2023-03-21T02:22:52.929Z,101449.03
2023-03-21T02:25:30.468Z,101448.16
2023-03-21T02:28:04.723Z,101454.28
2023-03-21T02:30:49.301Z,101431.38
2023-03-21T02:33:35.803Z,101445.53
2023-03-21T02:36:14.935Z,101443.78
2023-03-21T02:39:08.013Z,101440.31
2023-03-21T02:41:58.099Z,101448.16
2023-03-21T02:44:30.279Z,101436.78
2023-03-21T02:47:06.836Z,101440.31
2023-03-21T02:49:59.578Z,101433.22
2023-03-21T02:52:38.511Z,101429.66
2023-03-21T02:55:35.878Z,101430.59
2023-03-21T02:58:12.392Z,101434.16
2023-03-21T03:00:40.561Z,101428.00
2023-03-21T03:03:10.522Z,101426.25
2023-03-21T03:05:44.018Z,101422.81
2023-03-21T03:08:17.130Z,101418.41
2023-03-21T03:10:59.034Z,101428.88
2023-03-21T03:13:54.157Z,101427.16
2023-03-21T03:16:36.641Z,101430.63
2023-03-21T03:19:07.937Z,101417.50
2023-03-21T03:21:37.094Z,101421.84
2023-03-21T03:24:26.545Z,101420.09
2023-03-21T03:26:55.957Z,101417.41
2023-03-21T03:29:24.747Z,101403.38
2023-03-21T03:32:01.067Z,101407.78
2023-03-21T03:34:34.768Z,101405.13
2023-03-21T03:37:05.341Z,101411.25
2023-03-21T03:39:41.613Z,101406.03
2023-03-21T03:42:28.568Z,101413.03
2023-03-21T03:44:56.115Z,101409.50
2023-03-21T03:47:55.929Z,101401.59
2023-03-21T03:50:34.670Z,101405.06
2023-03-21T03:53:25.272Z,101407.66
2023-03-21T03:55:54.224Z,101403.28
2023-03-21T03:58:27.445Z,101398.00
2023-03-21T04:01:00.599Z,101398.03
2023-03-21T04:03:28.211Z,101399.81
2023-03-21T04:05:54.715Z,101404.19
2023-03-21T04:08:23.209Z,101394.53
2023-03-21T04:10:49.736Z,101395.41
2023-03-21T04:13:16.210Z,101391.88
2023-03-21T04:15:44.203Z,101390.13
2023-03-21T04:18:10.757Z,101392.78
2023-03-21T04:20:37.622Z,101385.75
2023-03-21T04:23:05.500Z,101382.28
2023-03-21T04:25:38.672Z,101390.19
2023-03-21T04:28:14.157Z,101388.38
2023-03-21T04:30:46.968Z,101394.53
2023-03-21T04:33:19.784Z,101394.50
2023-03-21T04:35:46.223Z,101379.59
2023-03-21T04:38:12.789Z,101379.59
2023-03-21T04:40:39.416Z,101380.47
2023-03-21T04:43:06.949Z,101385.72
2023-03-21T04:45:33.427Z,101377.88
2023-03-21T04:48:00.155Z,101381.44
2023-03-21T04:50:26.593Z,101378.81
2023-03-21T04:52:53.074Z,101381.44
2023-03-21T04:55:22.608Z,101386.63
2023-03-21T04:57:49.093Z,101366.47
2023-03-21T05:00:16.747Z,101375.25
2023-03-21T05:02:43.238Z,101372.63
2023-03-21T05:05:11.832Z,101377.00
2023-03-21T05:07:39.971Z,101370.84
2023-03-21T05:10:08.180Z,101383.09
2023-03-21T05:12:34.815Z,101369.97
2023-03-21T05:15:01.672Z,101373.50
2023-03-21T05:17:31.101Z,101371.75
2023-03-21T05:19:57.479Z,101370.88
2023-03-21T05:22:26.632Z,101370.00
2023-03-21T05:24:55.214Z,101363.88
2023-03-21T05:27:38.042Z,101356.94
2023-03-21T05:30:11.498Z,101359.56
2023-03-21T05:32:38.356Z,101361.25
2023-03-21T05:35:05.218Z,101357.81
2023-03-21T05:37:34.275Z,101357.84
2023-03-21T05:40:00.753Z,101359.59
2023-03-21T05:42:27.371Z,101351.72
2023-03-21T05:44:53.788Z,101357.84
2023-03-21T05:47:20.270Z,101358.69
2023-03-21T05:49:47.287Z,101358.69
2023-03-21T05:52:13.720Z,101355.22
2023-03-21T05:54:40.245Z,101352.59
2023-03-21T05:57:10.568Z,101361.41
2023-03-21T05:59:37.094Z,101357.13
2023-03-21T06:02:04.111Z,101350.13
2023-03-21T06:04:30.761Z,101351.81
2023-03-21T06:06:57.221Z,101354.53
2023-03-21T06:09:24.978Z,101354.59
2023-03-21T06:11:54.080Z,101348.38
2023-03-21T06:14:21.249Z,101350.13
2023-03-21T06:16:47.717Z,101352.88
2023-03-21T06:19:14.618Z,101359.88
2023-03-21T06:21:41.112Z,101361.66
2023-03-21T06:24:07.789Z,101360.84
2023-03-21T06:26:41.749Z,101355.59
2023-03-21T06:29:08.395Z,101359.09
2023-03-21T06:31:34.983Z,101353.78
2023-03-21T06:34:01.511Z,101354.59
2023-03-21T06:36:28.038Z,101345.72
2023-03-21T06:38:54.442Z,101353.75
2023-03-21T06:41:21.286Z,101351.16
2023-03-21T06:43:48.414Z,101366.06
2023-03-21T06:46:14.879Z,101360.84
2023-03-21T06:48:44.431Z,101364.38
2023-03-21T06:51:12.914Z,101361.78
2023-03-21T06:53:39.551Z,101360.94
2023-03-21T06:56:06.240Z,101359.22
2023-03-21T06:58:32.733Z,101353.06
2023-03-21T07:01:00.474Z,101365.31
2023-03-21T07:03:27.105Z,101363.56
2023-03-21T07:05:53.674Z,101360.88
2023-03-21T07:08:21.134Z,101361.75
2023-03-21T07:10:47.655Z,101362.59
2023-03-21T07:13:14.794Z,101371.34
2023-03-21T07:15:41.925Z,101356.41
2023-03-21T07:18:09.544Z,101368.78
2023-03-21T07:20:38.070Z,101362.69
2023-03-21T07:23:05.124Z,101366.22
2023-03-21T07:25:31.567Z,101367.09
2023-03-21T07:27:58.179Z,101365.34
2023-03-21T07:30:24.700Z,101355.78
2023-03-21T07:32:51.128Z,101356.69
2023-03-21T07:35:18.208Z,101361.06
2023-03-21T07:37:44.774Z,101349.72
2023-03-21T07:40:12.345Z,101341.84
2023-03-21T07:42:42.693Z,101347.19
2023-03-21T07:45:10.766Z,101336.63
2023-03-21T07:47:37.210Z,101328.75
2023-03-21T07:50:04.458Z,101327.88
2023-03-21T07:52:33.189Z,101322.56
2023-03-21T07:54:59.763Z,101321.69
2023-03-21T07:57:26.232Z,101332.25
2023-03-21T07:59:52.741Z,101330.59
2023-03-21T08:02:19.209Z,101334.97
2023-03-21T08:04:45.881Z,101319.19
2023-03-21T08:07:12.470Z,101329.81
2023-03-21T08:09:39.016Z,101327.19
2023-03-21T08:12:08.318Z,101322.81
2023-03-21T08:14:35.905Z,101323.75
2023-03-21T08:17:03.432Z,101328.16
2023-03-21T08:19:30.011Z,101327.28
2023-03-21T08:21:59.727Z,101307.06
2023-03-21T08:24:28.207Z,101319.47
2023-03-21T08:26:54.831Z,101315.97
2023-03-21T08:29:21.693Z,101309.84
2023-03-21T08:31:48.199Z,101308.09
2023-03-21T08:34:14.785Z,101302.78
2023-03-21T08:36:41.775Z,101305.50
2023-03-21T08:39:08.188Z,101302.03
2023-03-21T08:41:36.332Z,101297.66
2023-03-21T08:44:05.765Z,101297.69
2023-03-21T08:46:32.689Z,101300.38
2023-03-21T08:48:59.194Z,101287.22
2023-03-21T08:51:27.054Z,101285.44
2023-03-21T08:53:53.448Z,101276.72
2023-03-21T08:56:19.904Z,101268.84
2023-03-21T08:58:47.365Z,101265.34
2023-03-21T09:01:15.437Z,101271.44
2023-03-21T09:03:43.227Z,101262.66
2023-03-21T09:06:10.795Z,101265.38
2023-03-21T09:08:38.252Z,101259.28
2023-03-21T09:11:04.886Z,101271.53
2023-03-21T09:13:31.366Z,101260.94
2023-03-21T09:16:01.235Z,101274.19
2023-03-21T09:18:50.620Z,101256.75
2023-03-21T09:21:18.303Z,101263.81
2023-03-21T09:23:45.100Z,101261.28
2023-03-21T09:26:12.577Z,101256.09
2023-03-21T09:28:40.482Z,101252.59
2023-03-21T09:31:11.258Z,101252.59
2023-03-21T09:33:40.091Z,101257.84
2023-03-21T09:36:11.874Z,101248.22
2023-03-21T09:38:40.610Z,101247.38
2023-03-21T09:41:26.047Z,101249.28
2023-03-21T09:44:24.730Z,101253.72
2023-03-21T09:47:03.820Z,101248.53
2023-03-21T09:49:36.160Z,101258.28
2023-03-21T09:52:12.326Z,101242.50
2023-03-21T09:54:43.889Z,101246.06
2023-03-21T09:57:40.103Z,101242.59
2023-03-21T10:00:16.375Z,101236.38
2023-03-21T10:02:49.912Z,101238.94
2023-03-21T10:05:31.040Z,101240.78
2023-03-21T10:08:05.365Z,101230.22
2023-03-21T10:10:38.021Z,101239.06
2023-03-21T10:13:14.042Z,101239.13
2023-03-21T10:15:40.838Z,101237.44
2023-03-21T10:18:14.116Z,101229.56
2023-03-21T10:20:42.796Z,101235.78
2023-03-21T10:23:14.875Z,101223.47
2023-03-21T10:25:46.303Z,101232.28
2023-03-21T10:28:18.567Z,101233.22
2023-03-21T10:30:50.720Z,101235.88
2023-03-21T10:33:22.801Z,101219.25
2023-03-21T10:35:55.512Z,101211.38
2023-03-21T10:38:24.771Z,101214.03
2023-03-21T10:40:51.463Z,101218.44
2023-03-21T10:43:27.336Z,101208.88
2023-03-21T10:45:57.590Z,101206.28
2023-03-21T10:48:24.507Z,101201.94
2023-03-21T10:50:55.150Z,101204.63
2023-03-21T10:53:29.195Z,101208.16
2023-03-21T10:55:59.002Z,101218.75
2023-03-21T10:58:35.076Z,101219.63
2023-03-21T11:01:04.924Z,101217.06
2023-03-21T11:03:54.419Z,101228.50
2023-03-21T11:06:31.025Z,101229.38
2023-03-21T11:09:06.922Z,101220.56
2023-03-21T11:11:38.237Z,101223.19
2023-03-21T11:14:07.480Z,101221.41
2023-03-21T11:16:41.192Z,101218.81
2023-03-21T11:19:14.826Z,101212.63
2023-03-21T11:21:41.592Z,101211.75
2023-03-21T11:24:14.792Z,101210.88
2023-03-21T11:26:44.452Z,101205.66
2023-03-21T11:29:23.627Z,101210.13
2023-03-21T11:31:50.500Z,101189.91
2023-03-21T11:34:49.242Z,101189.94
2023-03-21T11:37:26.286Z,101196.13
2023-03-21T11:40:07.148Z,101170.59
2023-03-21T11:42:42.595Z,101166.22
2023-03-21T11:45:30.142Z,101170.63
2023-03-21T11:47:59.101Z,101167.09
2023-03-21T11:50:34.328Z,101171.53
2023-03-21T11:53:40.278Z,101179.44
2023-03-21T11:56:15.855Z,101186.47
2023-03-21T11:59:06.794Z,101180.28
2023-03-21T12:02:07.098Z,101182.94
2023-03-21T12:04:52.824Z,101175.88
2023-03-21T12:07:46.221Z,101175.91
2023-03-21T12:10:15.730Z,101181.16
2023-03-21T12:13:03.451Z,101166.25
2023-03-21T12:15:55.963Z,101169.75
2023-03-21T12:18:57.656Z,101172.38
2023-03-21T12:21:30.430Z,101169.75
2023-03-21T12:24:11.906Z,101175.91
2023-03-21T12:26:58.092Z,101161.81
2023-03-21T12:29:40.156Z,101145.13
2023-03-21T12:32:18.634Z,101145.16
2023-03-21T12:35:13.742Z,101153.94
2023-03-21T12:37:45.824Z,101145.13
2023-03-21T12:40:31.003Z,101143.34
2023-03-21T12:43:07.911Z,101157.41
2023-03-21T12:45:47.003Z,101148.63
2023-03-21T12:48:36.546Z,101124.84
2023-03-21T12:51:07.086Z,101145.09
2023-03-21T12:53:47.269Z,101128.34
2023-03-21T12:56:20.820Z,101137.09
2023-03-21T12:58:56.225Z,101135.22
2023-03-21T13:01:24.426Z,101114.81
2023-03-21T13:04:21.216Z,101107.63
2023-03-21T13:06:51.161Z,101101.28
2023-03-21T13:09:39.161Z,101096.84
2023-03-21T13:12:17.888Z,101090.66
2023-03-21T13:15:12.417Z,101095.06
2023-03-21T13:17:52.378Z,101102.16
2023-03-21T13:20:48.810Z,101089.84
2023-03-21T13:23:15.497Z,101098.78
2023-03-21T13:25:46.513Z,101095.34
2023-03-21T13:28:34.917Z,101084.88
2023-03-21T13:31:41.924Z,101096.41
2023-03-21T13:34:17.252Z,101099.16
2023-03-21T13:36:46.350Z,101087.72
2023-03-21T13:39:19.218Z,101101.00
2023-03-21T13:41:49.285Z,101102.78
2023-03-21T13:44:22.217Z,101089.56
2023-03-21T13:47:00.696Z,101079.00
2023-03-21T13:49:33.449Z,101080.81
2023-03-21T13:52:03.553Z,101082.56
2023-03-21T13:54:54.480Z,101084.31
2023-03-21T13:57:40.335Z,101080.84
2023-03-21T14:00:29.345Z,101069.41
2023-03-21T14:03:17.478Z,101085.22
2023-03-21T14:05:49.801Z,101069.38
2023-03-21T14:08:31.198Z,101073.78
2023-03-21T14:11:07.274Z,101068.56
2023-03-21T14:13:38.111Z,101065.91
2023-03-21T14:16:17.131Z,101064.13
2023-03-21T14:18:54.456Z,101067.66
2023-03-21T14:21:31.200Z,101056.22
2023-03-21T14:24:07.749Z,101055.34
2023-03-21T14:26:37.788Z,101050.94
2023-03-21T14:29:25.176Z,101053.56
2023-03-21T14:31:53.266Z,101050.06
2023-03-21T14:34:22.024Z,101048.31
2023-03-21T14:36:57.571Z,101054.47
2023-03-21T14:39:31.193Z,101049.19
2023-03-21T14:42:06.401Z,101053.59
2023-03-21T14:44:53.379Z,101061.50
2023-03-21T14:47:23.023Z,101060.66
2023-03-21T14:49:50.960Z,101047.44
2023-03-21T14:52:29.448Z,101050.97
2023-03-21T14:54:56.548Z,101060.66
2023-03-21T14:57:26.439Z,101054.47
2023-03-21T14:59:55.337Z,101050.97
2023-03-21T15:02:35.921Z,101041.28
2023-03-21T15:05:21.744Z,101043.03
2023-03-21T15:08:15.094Z,101049.19
2023-03-21T15:11:05.967Z,101034.25
2023-03-21T15:13:42.391Z,101030.72
2023-03-21T15:16:10.298Z,101023.69
2023-03-21T15:18:39.162Z,101026.34
2023-03-21T15:21:18.711Z,101021.06
2023-03-21T15:23:48.222Z,101015.81
2023-03-21T15:26:16.954Z,101026.38
2023-03-21T15:28:46.858Z,101025.47
2023-03-21T15:31:19.284Z,101029.88
2023-03-21T15:33:50.659Z,101029.88
2023-03-21T15:36:21.066Z,101030.78
2023-03-21T15:38:48.990Z,101032.53
2023-03-21T15:41:21.486Z,101033.41
2023-03-21T15:43:55.047Z,101036.06
2023-03-21T15:46:41.036Z,101040.44
2023-03-21T15:49:13.198Z,101036.94
2023-03-21T15:51:53.251Z,101037.81
2023-03-21T15:54:27.090Z,101047.50
2023-03-21T15:57:01.226Z,101050.13
2023-03-21T15:59:32.846Z,101057.16
2023-03-21T16:01:59.556Z,101051.88
2023-03-21T16:04:26.667Z,101064.19
2023-03-21T16:07:01.643Z,101063.28
2023-03-21T16:09:28.763Z,101070.31
2023-03-21T16:11:57.570Z,101063.28
2023-03-21T16:14:28.256Z,101060.63
2023-03-21T16:16:56.312Z,101067.63
2023-03-21T16:19:27.643Z,101076.44
2023-03-21T16:21:55.505Z,101064.13
2023-03-21T16:24:24.825Z,101049.16
2023-03-21T16:26:52.156Z,101056.19
2023-03-21T16:29:19.741Z,101047.41
2023-03-21T16:31:47.990Z,101039.53
2023-03-21T16:34:14.635Z,101043.91
2023-03-21T16:36:41.679Z,101034.25
2023-03-21T16:39:26.879Z,101036.00
2023-03-21T16:41:53.269Z,101043.03
2023-03-21T16:44:20.466Z,101031.59
2023-03-21T16:46:47.470Z,101033.34
2023-03-21T16:49:24.490Z,101032.47
2023-03-21T16:51:52.078Z,101021.94
2023-03-21T16:54:18.517Z,101016.66
2023-03-21T16:56:48.771Z,101018.41
2023-03-21T16:59:15.426Z,101025.47
2023-03-21T17:01:46.033Z,101036.91
2023-03-21T17:04:12.971Z,101018.44
2023-03-21T17:06:44.763Z,101030.72
2023-03-21T17:09:14.247Z,101035.97
2023-03-21T17:11:41.625Z,101034.22
2023-03-21T17:14:09.825Z,101032.47
2023-03-21T17:16:36.972Z,101030.69
2023-03-21T17:19:06.988Z,101030.69
2023-03-21T17:21:33.406Z,101028.94
2023-03-21T17:23:59.947Z,101033.34
2023-03-21T17:26:29.073Z,101029.81
2023-03-21T17:29:02.994Z,101018.44
2023-03-21T17:31:36.848Z,101041.25
2023-03-21T17:34:04.572Z,101037.72
2023-03-21T17:36:33.876Z,101034.22
2023-03-21T17:39:01.136Z,101032.44
2023-03-21T17:41:28.556Z,101040.34
2023-03-21T17:43:55.939Z,101025.41
2023-03-21T17:46:28.962Z,101021.88
2023-03-21T17:48:56.059Z,101030.66
2023-03-21T17:51:25.925Z,101045.59
2023-03-21T17:53:52.356Z,101041.19
2023-03-21T17:56:27.772Z,101036.78
2023-03-21T17:58:56.097Z,101041.16
2023-03-21T18:01:23.273Z,101026.25
2023-03-21T18:03:50.993Z,101020.97
2023-03-21T18:06:19.956Z,101015.66
2023-03-21T18:08:47.454Z,101013.91
2023-03-21T18:11:15.053Z,101015.66
2023-03-21T18:13:43.509Z,101014.78
2023-03-21T18:16:13.871Z,101025.34
2023-03-21T18:18:40.443Z,101023.56
2023-03-21T18:21:10.881Z,101019.19
2023-03-21T18:23:38.873Z,101022.69
2023-03-21T18:26:06.561Z,101015.69
2023-03-21T18:28:33.601Z,101016.53
2023-03-21T18:31:10.634Z,101026.22
2023-03-21T18:33:45.019Z,101023.56
2023-03-21T18:36:14.914Z,101020.97
2023-03-21T18:38:42.238Z,101034.13
2023-03-21T18:41:08.847Z,101020.09
2023-03-21T18:46:23.220Z,101026.22
2023-03-21T18:48:51.567Z,101019.19
2023-03-21T18:51:19.273Z,101026.22
2023-03-21T18:53:45.781Z,101023.59
2023-03-21T18:56:46.636Z,101021.81
2023-03-21T18:58:59.236Z,101019.19
2023-03-21T19:01:25.868Z,101020.06
2023-03-21T19:04:16.300Z,101019.19
2023-03-21T19:06:48.479Z,101025.34
2023-03-21T19:09:15.127Z,101005.09
2023-03-21T19:11:44.901Z,101023.59
2023-03-21T19:14:13.797Z,101022.69
2023-03-21T19:17:14.999Z,101019.13
2023-03-21T19:19:28.479Z,101014.69
2023-03-21T19:21:55.656Z,101020.81
2023-03-21T19:24:28.357Z,101023.44
2023-03-21T19:26:55.636Z,101017.28
2023-03-21T19:29:22.228Z,101010.22
2023-03-21T19:31:51.014Z,101016.31
2023-03-21T19:34:18.176Z,101019.81
2023-03-21T19:36:45.922Z,101004.00
2023-03-21T19:39:19.411Z,101009.25
2023-03-21T19:41:46.212Z,101007.47
2023-03-21T19:44:12.705Z,101001.28
2023-03-21T19:46:39.391Z,101009.19
2023-03-21T19:49:06.668Z,101002.13
2023-03-21T19:51:33.640Z,101005.59
2023-03-21T19:54:03.930Z,100989.81
2023-03-21T19:56:31.782Z,100994.16
2023-03-21T19:58:59.118Z,100986.25
2023-03-21T20:01:26.139Z,100975.72
2023-03-21T20:03:55.757Z,100988.00
2023-03-21T20:06:23.878Z,100982.72
2023-03-21T20:11:38.633Z,100982.69
2023-03-21T20:14:06.232Z,100987.06
2023-03-21T20:16:35.844Z,100980.91
2023-03-21T20:19:09.016Z,100980.00
2023-03-21T20:21:46.161Z,100979.16
2023-03-21T20:24:16.843Z,100987.88
2023-03-21T20:26:45.375Z,100987.91
2023-03-21T20:30:05.449Z,100989.72
2023-03-21T20:31:58.755Z,100982.78
2023-03-21T20:34:25.224Z,100980.25
2023-03-21T20:36:54.900Z,100970.63
2023-03-21T20:39:22.045Z,100976.78
2023-03-21T20:41:48.913Z,100975.91
2023-03-21T20:44:45.162Z,100967.16
2023-03-21T20:47:05.477Z,100970.66
2023-03-21T20:49:32.341Z,100953.09
2023-03-21T20:54:45.649Z,100959.25
2023-03-21T20:57:12.423Z,100966.22
2023-03-21T20:59:39.321Z,100955.59
2023-03-21T21:02:05.722Z,100958.22
2023-03-21T21:05:15.661Z,100944.13
2023-03-21T21:07:21.806Z,100952.88
2023-03-21T21:09:49.405Z,100962.50
2023-03-21T21:12:19.271Z,100955.47
2023-03-21T21:14:47.728Z,100944.06
2023-03-21T21:17:31.098Z,100946.66
2023-03-21T21:20:02.295Z,100952.72
2023-03-21T21:22:28.800Z,100943.97
2023-03-21T21:24:55.272Z,100941.31
2023-03-21T21:27:22.138Z,100939.53
2023-03-21T21:29:50.234Z,100934.28
2023-03-21T21:32:18.581Z,100936.84
2023-03-21T21:34:47.614Z,100939.47
2023-03-21T21:37:15.170Z,100929.84
2023-03-21T21:39:41.928Z,100932.44
2023-03-21T21:42:08.441Z,100931.56
2023-03-21T21:44:34.960Z,100931.59
2023-03-21T21:47:04.142Z,100927.19
2023-03-21T21:49:31.150Z,100921.94
2023-03-21T21:51:59.727Z,100927.19
2023-03-21T21:54:29.996Z,100925.41
2023-03-21T21:56:58.011Z,100918.41
2023-03-21T21:59:24.641Z,100918.38
2023-03-21T22:01:51.389Z,100918.38
2023-03-21T22:04:18.950Z,100921.91
2023-03-21T22:06:47.429Z,100923.63
2023-03-21T22:09:15.631Z,100917.50
2023-03-21T22:11:42.064Z,100922.75
2023-03-21T22:14:08.416Z,100907.84
2023-03-21T22:16:34.830Z,100910.47
2023-03-21T22:19:01.367Z,100909.56
2023-03-21T22:21:30.688Z,100912.22
2023-03-21T22:23:57.244Z,100906.06
2023-03-21T22:26:23.853Z,100909.56
2023-03-21T22:28:50.326Z,100913.91
2023-03-21T22:31:17.127Z,100899.88
2023-03-21T22:33:44.955Z,100912.16
2023-03-21T22:36:11.708Z,100910.34
2023-03-21T22:38:38.597Z,100905.09
2023-03-21T22:41:06.432Z,100900.72
2023-03-21T22:43:34.515Z,100904.22
2023-03-21T22:46:05.686Z,100902.44
2023-03-21T22:48:32.884Z,100898.03
2023-03-21T22:51:00.328Z,100906.81
2023-03-21T22:53:26.836Z,100897.13
2023-03-21T22:55:53.674Z,100896.25
2023-03-21T22:58:20.850Z,100891.84
2023-03-21T23:00:47.516Z,100888.28
2023-03-21T23:03:16.781Z,100891.81
2023-03-21T23:05:44.699Z,100891.81
2023-03-21T23:08:12.722Z,100901.44
2023-03-21T23:10:40.500Z,100896.16
2023-03-21T23:13:07.152Z,100897.88
2023-03-21T23:15:33.958Z,100877.66
2023-03-21T23:18:00.405Z,100889.97
2023-03-21T23:20:27.465Z,100890.84
2023-03-21T23:22:54.874Z,100902.19
2023-03-21T23:25:21.494Z,100892.59
2023-03-21T23:27:48.189Z,100896.97
2023-03-21T23:30:14.758Z,100896.06
2023-03-21T23:32:41.890Z,100891.63
2023-03-21T23:35:08.837Z,100894.22
2023-03-21T23:37:35.306Z,100897.75
2023-03-21T23:40:02.166Z,100895.09
2023-03-21T23:42:30.492Z,100895.13
2023-03-21T23:44:57.230Z,100894.25
2023-03-21T23:47:23.898Z,100885.47
2023-03-21T23:49:52.718Z,100886.34
2023-03-21T23:52:19.296Z,100880.22
2023-03-21T23:54:45.854Z,100878.47
2023-03-21T23:57:12.349Z,100878.47
2023-03-21T23:59:38.707Z,100871.44
